sensor_id;sensor_type;location;lat;lon;timestamp;temperature;humidity
19920;DHT22;10122;50.074;19.920;2023-04-03T00:01:14;5.30;99.90
19920;DHT22;10122;50.074;19.920;2023-04-03T00:03:41;5.30;99.90
19920;DHT22;10122;50.074;19.920;2023-04-03T00:06:07;5.40;99.90
19920;DHT22;10122;50.074;19.920;2023-04-03T00:08:34;5.40;99.90
19920;DHT22;10122;50.074;19.920;2023-04-03T00:11:01;5.30;99.90
19920;DHT22;10122;50.074;19.920;2023-04-03T00:13:27;5.30;99.90
19920;DHT22;10122;50.074;19.920;2023-04-03T00:15:53;5.30;99.90
19920;DHT22;10122;50.074;19.920;2023-04-03T00:18:19;5.20;99.90
19920;DHT22;10122;50.074;19.920;2023-04-03T00:20:45;5.20;99.90
19920;DHT22;10122;50.074;19.920;2023-04-03T00:23:10;5.10;99.90
19920;DHT22;10122;50.074;19.920;2023-04-03T00:25:36;5.20;99.90
19920;DHT22;10122;50.074;19.920;2023-04-03T00:28:03;5.20;99.90
19920;DHT22;10122;50.074;19.920;2023-04-03T00:30:29;5.10;99.90
19920;DHT22;10122;50.074;19.920;2023-04-03T00:32:55;5.10;99.90
19920;DHT22;10122;50.074;19.920;2023-04-03T00:35:22;5.00;99.90
19920;DHT22;10122;50.074;19.920;2023-04-03T00:37:50;5.00;99.90
19920;DHT22;10122;50.074;19.920;2023-04-03T00:40:16;5.10;99.90
19920;DHT22;10122;50.074;19.920;2023-04-03T00:42:44;5.10;99.90
19920;DHT22;10122;50.074;19.920;2023-04-03T00:47:54;5.00;99.90
19920;DHT22;10122;50.074;19.920;2023-04-03T00:50:21;5.00;99.90
19920;DHT22;10122;50.074;19.920;2023-04-03T00:52:47;5.00;99.90
19920;DHT22;10122;50.074;19.920;2023-04-03T00:55:15;5.00;99.90
19920;DHT22;10122;50.074;19.920;2023-04-03T00:57:41;5.00;99.90
19920;DHT22;10122;50.074;19.920;2023-04-03T01:00:11;5.00;99.90
19920;DHT22;10122;50.074;19.920;2023-04-03T01:02:38;4.90;99.90
19920;DHT22;10122;50.074;19.920;2023-04-03T01:05:06;4.90;99.90
19920;DHT22;10122;50.074;19.920;2023-04-03T01:07:32;4.80;99.90
19920;DHT22;10122;50.074;19.920;2023-04-03T01:10:02;4.70;99.90
19920;DHT22;10122;50.074;19.920;2023-04-03T01:12:29;4.70;99.90
19920;DHT22;10122;50.074;19.920;2023-04-03T01:14:58;4.60;99.90
19920;DHT22;10122;50.074;19.920;2023-04-03T01:17:37;4.70;99.90
19920;DHT22;10122;50.074;19.920;2023-04-03T01:25:31;4.70;99.90
19920;DHT22;10122;50.074;19.920;2023-04-03T01:27:56;4.60;99.90
19920;DHT22;10122;50.074;19.920;2023-04-03T01:30:28;4.60;99.90
19920;DHT22;10122;50.074;19.920;2023-04-03T01:32:56;4.60;99.90
19920;DHT22;10122;50.074;19.920;2023-04-03T01:35:22;4.50;99.90
19920;DHT22;10122;50.074;19.920;2023-04-03T01:37:48;4.50;99.90
19920;DHT22;10122;50.074;19.920;2023-04-03T01:40:14;4.50;99.90
19920;DHT22;10122;50.074;19.920;2023-04-03T01:42:40;4.50;99.90
19920;DHT22;10122;50.074;19.920;2023-04-03T01:45:06;4.50;99.90
19920;DHT22;10122;50.074;19.920;2023-04-03T01:47:32;4.60;99.90
19920;DHT22;10122;50.074;19.920;2023-04-03T01:49:58;4.60;99.90
19920;DHT22;10122;50.074;19.920;2023-04-03T01:52:23;4.60;99.90
19920;DHT22;10122;50.074;19.920;2023-04-03T01:54:49;4.60;99.90
19920;DHT22;10122;50.074;19.920;2023-04-03T01:57:16;4.60;99.90
19920;DHT22;10122;50.074;19.920;2023-04-03T01:59:42;4.60;99.90
19920;DHT22;10122;50.074;19.920;2023-04-03T02:02:08;4.70;99.90
19920;DHT22;10122;50.074;19.920;2023-04-03T02:04:33;4.60;99.90
19920;DHT22;10122;50.074;19.920;2023-04-03T02:06:59;4.60;99.90
19920;DHT22;10122;50.074;19.920;2023-04-03T02:09:25;4.70;99.90
19920;DHT22;10122;50.074;19.920;2023-04-03T02:11:52;4.70;99.90
19920;DHT22;10122;50.074;19.920;2023-04-03T02:14:18;4.70;99.90
19920;DHT22;10122;50.074;19.920;2023-04-03T02:16:44;4.70;99.90
19920;DHT22;10122;50.074;19.920;2023-04-03T02:19:10;4.70;99.90
19920;DHT22;10122;50.074;19.920;2023-04-03T02:21:36;4.70;99.90
19920;DHT22;10122;50.074;19.920;2023-04-03T02:24:01;4.70;99.90
19920;DHT22;10122;50.074;19.920;2023-04-03T02:26:27;4.70;99.90
19920;DHT22;10122;50.074;19.920;2023-04-03T02:28:53;4.60;99.90
19920;DHT22;10122;50.074;19.920;2023-04-03T02:31:18;4.60;99.90
19920;DHT22;10122;50.074;19.920;2023-04-03T02:33:44;4.60;99.90
19920;DHT22;10122;50.074;19.920;2023-04-03T02:36:10;4.50;99.90
19920;DHT22;10122;50.074;19.920;2023-04-03T02:38:36;4.50;99.90
19920;DHT22;10122;50.074;19.920;2023-04-03T02:41:07;4.40;99.90
19920;DHT22;10122;50.074;19.920;2023-04-03T02:43:33;4.40;99.90
19920;DHT22;10122;50.074;19.920;2023-04-03T02:45:59;4.40;99.90
19920;DHT22;10122;50.074;19.920;2023-04-03T02:48:26;4.50;99.90
19920;DHT22;10122;50.074;19.920;2023-04-03T02:50:51;4.50;99.90
19920;DHT22;10122;50.074;19.920;2023-04-03T02:53:18;4.50;99.90
19920;DHT22;10122;50.074;19.920;2023-04-03T02:55:44;4.50;99.90
19920;DHT22;10122;50.074;19.920;2023-04-03T02:58:09;4.40;99.90
19920;DHT22;10122;50.074;19.920;2023-04-03T03:00:35;4.40;99.90
19920;DHT22;10122;50.074;19.920;2023-04-03T03:03:01;4.30;99.90
19920;DHT22;10122;50.074;19.920;2023-04-03T03:05:27;4.30;99.90
19920;DHT22;10122;50.074;19.920;2023-04-03T03:07:54;4.40;99.90
19920;DHT22;10122;50.074;19.920;2023-04-03T03:10:20;4.40;99.90
19920;DHT22;10122;50.074;19.920;2023-04-03T03:12:46;4.30;99.90
19920;DHT22;10122;50.074;19.920;2023-04-03T03:15:11;4.30;99.90
19920;DHT22;10122;50.074;19.920;2023-04-03T03:17:37;4.30;99.90
19920;DHT22;10122;50.074;19.920;2023-04-03T03:20:05;4.30;99.90
19920;DHT22;10122;50.074;19.920;2023-04-03T03:22:31;4.30;99.90
19920;DHT22;10122;50.074;19.920;2023-04-03T03:24:57;4.30;99.90
19920;DHT22;10122;50.074;19.920;2023-04-03T03:27:23;4.20;99.90
19920;DHT22;10122;50.074;19.920;2023-04-03T03:29:49;4.10;99.90
19920;DHT22;10122;50.074;19.920;2023-04-03T03:32:15;4.10;99.90
19920;DHT22;10122;50.074;19.920;2023-04-03T03:34:41;4.20;99.90
19920;DHT22;10122;50.074;19.920;2023-04-03T03:37:07;4.10;99.90
19920;DHT22;10122;50.074;19.920;2023-04-03T03:39:32;4.10;99.90
19920;DHT22;10122;50.074;19.920;2023-04-03T03:41:58;4.20;99.90
19920;DHT22;10122;50.074;19.920;2023-04-03T03:44:24;4.10;99.90
19920;DHT22;10122;50.074;19.920;2023-04-03T03:46:50;4.10;99.90
19920;DHT22;10122;50.074;19.920;2023-04-03T03:49:15;4.10;99.90
19920;DHT22;10122;50.074;19.920;2023-04-03T03:51:41;4.10;99.90
19920;DHT22;10122;50.074;19.920;2023-04-03T03:54:07;4.10;99.90
19920;DHT22;10122;50.074;19.920;2023-04-03T03:56:33;4.00;99.90
19920;DHT22;10122;50.074;19.920;2023-04-03T03:58:59;4.00;99.90
19920;DHT22;10122;50.074;19.920;2023-04-03T04:01:25;4.00;99.90
19920;DHT22;10122;50.074;19.920;2023-04-03T04:03:51;4.00;99.90
19920;DHT22;10122;50.074;19.920;2023-04-03T04:06:19;4.00;99.90
19920;DHT22;10122;50.074;19.920;2023-04-03T04:08:45;4.00;99.90
19920;DHT22;10122;50.074;19.920;2023-04-03T04:11:10;4.00;99.90
19920;DHT22;10122;50.074;19.920;2023-04-03T04:13:36;3.90;99.90
19920;DHT22;10122;50.074;19.920;2023-04-03T04:16:02;4.00;99.90
19920;DHT22;10122;50.074;19.920;2023-04-03T04:18:28;4.00;99.90
19920;DHT22;10122;50.074;19.920;2023-04-03T04:20:53;4.00;99.90
19920;DHT22;10122;50.074;19.920;2023-04-03T04:23:19;4.00;99.90
19920;DHT22;10122;50.074;19.920;2023-04-03T04:25:46;4.00;99.90
19920;DHT22;10122;50.074;19.920;2023-04-03T04:28:12;4.00;99.90
19920;DHT22;10122;50.074;19.920;2023-04-03T04:30:38;4.00;99.90
19920;DHT22;10122;50.074;19.920;2023-04-03T04:33:03;4.10;99.90
19920;DHT22;10122;50.074;19.920;2023-04-03T04:35:29;4.10;99.90
19920;DHT22;10122;50.074;19.920;2023-04-03T04:37:55;4.10;99.90
19920;DHT22;10122;50.074;19.920;2023-04-03T04:40:21;4.10;99.90
19920;DHT22;10122;50.074;19.920;2023-04-03T04:42:47;4.10;99.90
19920;DHT22;10122;50.074;19.920;2023-04-03T04:45:13;4.00;99.90
19920;DHT22;10122;50.074;19.920;2023-04-03T04:47:38;4.00;99.90
19920;DHT22;10122;50.074;19.920;2023-04-03T04:50:05;4.00;99.90
19920;DHT22;10122;50.074;19.920;2023-04-03T04:52:30;4.00;99.90
19920;DHT22;10122;50.074;19.920;2023-04-03T04:54:56;4.10;99.90
19920;DHT22;10122;50.074;19.920;2023-04-03T04:57:22;4.10;99.90
19920;DHT22;10122;50.074;19.920;2023-04-03T04:59:47;4.10;99.90
19920;DHT22;10122;50.074;19.920;2023-04-03T05:02:13;4.10;99.90
19920;DHT22;10122;50.074;19.920;2023-04-03T05:04:39;4.00;99.90
19920;DHT22;10122;50.074;19.920;2023-04-03T05:07:05;4.00;99.90
19920;DHT22;10122;50.074;19.920;2023-04-03T05:09:30;4.10;99.90
19920;DHT22;10122;50.074;19.920;2023-04-03T05:11:56;4.10;99.90
19920;DHT22;10122;50.074;19.920;2023-04-03T05:14:22;4.20;99.90
19920;DHT22;10122;50.074;19.920;2023-04-03T05:16:48;4.20;99.90
19920;DHT22;10122;50.074;19.920;2023-04-03T05:19:14;4.10;99.90
19920;DHT22;10122;50.074;19.920;2023-04-03T05:21:39;4.10;99.90
19920;DHT22;10122;50.074;19.920;2023-04-03T05:24:05;4.10;99.90
19920;DHT22;10122;50.074;19.920;2023-04-03T05:26:34;4.20;99.90
19920;DHT22;10122;50.074;19.920;2023-04-03T05:29:00;4.20;99.90
19920;DHT22;10122;50.074;19.920;2023-04-03T05:31:26;4.20;99.90
19920;DHT22;10122;50.074;19.920;2023-04-03T05:33:55;4.20;99.90
19920;DHT22;10122;50.074;19.920;2023-04-03T05:36:21;4.20;99.90
19920;DHT22;10122;50.074;19.920;2023-04-03T05:38:47;4.30;99.90
19920;DHT22;10122;50.074;19.920;2023-04-03T05:41:14;4.30;99.90
19920;DHT22;10122;50.074;19.920;2023-04-03T05:43:40;4.40;99.90
19920;DHT22;10122;50.074;19.920;2023-04-03T05:46:11;4.40;99.90
19920;DHT22;10122;50.074;19.920;2023-04-03T05:48:37;4.30;99.90
19920;DHT22;10122;50.074;19.920;2023-04-03T05:51:04;4.30;99.90
19920;DHT22;10122;50.074;19.920;2023-04-03T05:53:31;4.30;99.90
19920;DHT22;10122;50.074;19.920;2023-04-03T05:55:58;4.30;99.90
19920;DHT22;10122;50.074;19.920;2023-04-03T05:58:23;4.30;99.90
19920;DHT22;10122;50.074;19.920;2023-04-03T06:00:49;4.20;99.90
19920;DHT22;10122;50.074;19.920;2023-04-03T06:03:15;4.20;99.90
19920;DHT22;10122;50.074;19.920;2023-04-03T06:05:42;4.20;99.90
19920;DHT22;10122;50.074;19.920;2023-04-03T06:08:08;4.10;99.90
19920;DHT22;10122;50.074;19.920;2023-04-03T06:10:34;4.10;99.90
19920;DHT22;10122;50.074;19.920;2023-04-03T06:33:14;19.70;61.80
19920;DHT22;10122;50.074;19.920;2023-04-03T06:35:40;13.70;82.00
19920;DHT22;10122;50.074;19.920;2023-04-03T06:38:06;10.10;93.80
19920;DHT22;10122;50.074;19.920;2023-04-03T06:40:35;7.80;99.90
19920;DHT22;10122;50.074;19.920;2023-04-03T06:43:01;6.30;99.90
19920;DHT22;10122;50.074;19.920;2023-04-03T06:45:27;5.60;99.90
19920;DHT22;10122;50.074;19.920;2023-04-03T06:47:53;5.10;99.90
19920;DHT22;10122;50.074;19.920;2023-04-03T06:50:19;4.70;99.90
19920;DHT22;10122;50.074;19.920;2023-04-03T06:52:45;4.50;99.90
19920;DHT22;10122;50.074;19.920;2023-04-03T06:55:11;4.30;99.90
19920;DHT22;10122;50.074;19.920;2023-04-03T06:57:37;4.20;99.90
19920;DHT22;10122;50.074;19.920;2023-04-03T07:00:04;4.20;99.90
19920;DHT22;10122;50.074;19.920;2023-04-03T07:02:30;4.10;99.90
19920;DHT22;10122;50.074;19.920;2023-04-03T07:04:56;4.20;99.90
19920;DHT22;10122;50.074;19.920;2023-04-03T07:07:22;4.10;99.90
19920;DHT22;10122;50.074;19.920;2023-04-03T07:09:47;4.30;99.90
19920;DHT22;10122;50.074;19.920;2023-04-03T07:12:13;4.30;99.90
19920;DHT22;10122;50.074;19.920;2023-04-03T07:14:39;4.30;99.90
19920;DHT22;10122;50.074;19.920;2023-04-03T07:17:05;4.30;99.90
19920;DHT22;10122;50.074;19.920;2023-04-03T07:19:31;4.30;99.90
19920;DHT22;10122;50.074;19.920;2023-04-03T07:21:56;4.30;99.90
19920;DHT22;10122;50.074;19.920;2023-04-03T07:24:22;4.40;99.90
19920;DHT22;10122;50.074;19.920;2023-04-03T07:26:52;4.40;99.90
19920;DHT22;10122;50.074;19.920;2023-04-03T07:29:18;4.50;99.90
19920;DHT22;10122;50.074;19.920;2023-04-03T07:31:45;4.40;99.90
19920;DHT22;10122;50.074;19.920;2023-04-03T07:34:11;4.30;99.90
19920;DHT22;10122;50.074;19.920;2023-04-03T07:36:37;4.40;99.90
19920;DHT22;10122;50.074;19.920;2023-04-03T07:39:03;4.50;99.90
19920;DHT22;10122;50.074;19.920;2023-04-03T07:41:29;4.70;99.90
19920;DHT22;10122;50.074;19.920;2023-04-03T07:43:55;4.90;99.90
19920;DHT22;10122;50.074;19.920;2023-04-03T07:46:22;5.20;99.90
19920;DHT22;10122;50.074;19.920;2023-04-03T07:48:48;5.30;99.90
19920;DHT22;10122;50.074;19.920;2023-04-03T07:51:13;5.50;99.90
19920;DHT22;10122;50.074;19.920;2023-04-03T07:53:40;5.90;99.90
19920;DHT22;10122;50.074;19.920;2023-04-03T07:56:06;5.80;99.90
19920;DHT22;10122;50.074;19.920;2023-04-03T07:58:32;6.20;99.90
19920;DHT22;10122;50.074;19.920;2023-04-03T08:00:59;6.50;99.90
19920;DHT22;10122;50.074;19.920;2023-04-03T08:03:25;6.80;99.90
19920;DHT22;10122;50.074;19.920;2023-04-03T08:05:51;7.10;99.90
19920;DHT22;10122;50.074;19.920;2023-04-03T08:08:21;7.10;99.90
19920;DHT22;10122;50.074;19.920;2023-04-03T08:10:52;6.90;99.90
19920;DHT22;10122;50.074;19.920;2023-04-03T08:13:19;7.10;99.90
19920;DHT22;10122;50.074;19.920;2023-04-03T08:15:45;7.50;99.90
19920;DHT22;10122;50.074;19.920;2023-04-03T08:18:10;7.60;99.90
19920;DHT22;10122;50.074;19.920;2023-04-03T08:20:38;8.30;99.90
19920;DHT22;10122;50.074;19.920;2023-04-03T08:23:05;8.70;99.90
19920;DHT22;10122;50.074;19.920;2023-04-03T08:25:31;8.90;99.90
19920;DHT22;10122;50.074;19.920;2023-04-03T08:27:57;8.80;99.90
19920;DHT22;10122;50.074;19.920;2023-04-03T08:30:23;8.60;99.90
19920;DHT22;10122;50.074;19.920;2023-04-03T08:32:48;8.20;99.90
19920;DHT22;10122;50.074;19.920;2023-04-03T08:35:14;7.90;99.90
19920;DHT22;10122;50.074;19.920;2023-04-03T08:37:50;8.00;99.90
19920;DHT22;10122;50.074;19.920;2023-04-03T08:40:16;8.30;99.90
19920;DHT22;10122;50.074;19.920;2023-04-03T08:48:15;7.70;99.90
19920;DHT22;10122;50.074;19.920;2023-04-03T08:50:56;7.40;99.90
19920;DHT22;10122;50.074;19.920;2023-04-03T08:53:28;7.40;99.90
19920;DHT22;10122;50.074;19.920;2023-04-03T08:55:56;7.40;99.90
19920;DHT22;10122;50.074;19.920;2023-04-03T08:58:28;7.30;99.90
19920;DHT22;10122;50.074;19.920;2023-04-03T09:03:30;6.90;99.90
19920;DHT22;10122;50.074;19.920;2023-04-03T09:08:53;6.60;99.90
19920;DHT22;10122;50.074;19.920;2023-04-03T09:17:12;6.40;99.90
19920;DHT22;10122;50.074;19.920;2023-04-03T09:19:54;6.40;99.90
19920;DHT22;10122;50.074;19.920;2023-04-03T09:22:27;6.00;99.90
19920;DHT22;10122;50.074;19.920;2023-04-03T09:25:05;6.00;99.90
19920;DHT22;10122;50.074;19.920;2023-04-03T09:27:34;6.00;99.90
19920;DHT22;10122;50.074;19.920;2023-04-03T09:29:59;6.10;99.90
19920;DHT22;10122;50.074;19.920;2023-04-03T09:32:28;6.10;99.90
19920;DHT22;10122;50.074;19.920;2023-04-03T09:34:57;6.00;99.90
19920;DHT22;10122;50.074;19.920;2023-04-03T09:37:37;5.80;99.90
19920;DHT22;10122;50.074;19.920;2023-04-03T09:40:04;5.60;99.90
19920;DHT22;10122;50.074;19.920;2023-04-03T09:42:31;5.60;99.90
19920;DHT22;10122;50.074;19.920;2023-04-03T09:45:00;5.50;99.90
19920;DHT22;10122;50.074;19.920;2023-04-03T09:52:50;5.20;99.90
19920;DHT22;10122;50.074;19.920;2023-04-03T09:55:24;5.00;99.90
19920;DHT22;10122;50.074;19.920;2023-04-03T09:58:00;4.60;99.90
19920;DHT22;10122;50.074;19.920;2023-04-03T10:00:30;4.40;99.90
19920;DHT22;10122;50.074;19.920;2023-04-03T10:02:58;4.80;99.90
19920;DHT22;10122;50.074;19.920;2023-04-03T10:05:35;4.80;99.90
19920;DHT22;10122;50.074;19.920;2023-04-03T10:10:45;4.80;99.90
19920;DHT22;10122;50.074;19.920;2023-04-03T10:13:14;4.70;99.90
19920;DHT22;10122;50.074;19.920;2023-04-03T10:15:56;4.80;99.90
19920;DHT22;10122;50.074;19.920;2023-04-03T10:24:03;5.40;99.90
19920;DHT22;10122;50.074;19.920;2023-04-03T10:26:43;5.70;99.90
19920;DHT22;10122;50.074;19.920;2023-04-03T10:32:11;5.70;99.90
19920;DHT22;10122;50.074;19.920;2023-04-03T10:34:53;5.60;99.90
19920;DHT22;10122;50.074;19.920;2023-04-03T10:46:06;5.80;99.90
19920;DHT22;10122;50.074;19.920;2023-04-03T10:49:05;5.90;99.90
19920;DHT22;10122;50.074;19.920;2023-04-03T10:51:45;5.90;99.90
19920;DHT22;10122;50.074;19.920;2023-04-03T10:54:26;5.70;99.90
19920;DHT22;10122;50.074;19.920;2023-04-03T10:56:57;5.60;99.90
19920;DHT22;10122;50.074;19.920;2023-04-03T11:04:48;5.10;99.90
19920;DHT22;10122;50.074;19.920;2023-04-03T11:07:28;5.00;99.90
19920;DHT22;10122;50.074;19.920;2023-04-03T11:10:03;4.80;99.90
19920;DHT22;10122;50.074;19.920;2023-04-03T11:15:02;5.30;99.90
19920;DHT22;10122;50.074;19.920;2023-04-03T11:17:41;5.40;99.90
19920;DHT22;10122;50.074;19.920;2023-04-03T11:20:26;5.30;99.90
19920;DHT22;10122;50.074;19.920;2023-04-03T11:23:19;5.10;99.90
19920;DHT22;10122;50.074;19.920;2023-04-03T11:25:50;5.40;99.90
19920;DHT22;10122;50.074;19.920;2023-04-03T11:28:17;5.10;99.90
19920;DHT22;10122;50.074;19.920;2023-04-03T11:36:23;5.00;99.90
19920;DHT22;10122;50.074;19.920;2023-04-03T11:38:54;5.20;99.90
19920;DHT22;10122;50.074;19.920;2023-04-03T11:41:30;5.40;99.90
19920;DHT22;10122;50.074;19.920;2023-04-03T11:44:05;5.70;99.90
19920;DHT22;10122;50.074;19.920;2023-04-03T11:47:04;5.90;99.90
19920;DHT22;10122;50.074;19.920;2023-04-03T11:49:57;5.70;99.90
19920;DHT22;10122;50.074;19.920;2023-04-03T12:16:32;5.90;99.90
19920;DHT22;10122;50.074;19.920;2023-04-03T12:19:00;6.40;99.90
19920;DHT22;10122;50.074;19.920;2023-04-03T12:29:10;6.40;99.90
19920;DHT22;10122;50.074;19.920;2023-04-03T12:31:47;6.30;99.90
19920;DHT22;10122;50.074;19.920;2023-04-03T12:42:42;6.10;99.90
19920;DHT22;10122;50.074;19.920;2023-04-03T12:45:22;6.00;99.90
19920;DHT22;10122;50.074;19.920;2023-04-03T12:47:50;6.40;99.90
19920;DHT22;10122;50.074;19.920;2023-04-03T12:50:31;6.20;99.90
19920;DHT22;10122;50.074;19.920;2023-04-03T12:53:13;6.10;99.90
19920;DHT22;10122;50.074;19.920;2023-04-03T12:55:40;6.60;99.90
19920;DHT22;10122;50.074;19.920;2023-04-03T12:58:23;6.80;99.90
19920;DHT22;10122;50.074;19.920;2023-04-03T13:03:27;7.00;99.90
19920;DHT22;10122;50.074;19.920;2023-04-03T13:05:56;7.10;99.90
19920;DHT22;10122;50.074;19.920;2023-04-03T13:08:23;7.10;99.90
19920;DHT22;10122;50.074;19.920;2023-04-03T13:11:01;7.10;99.00
19920;DHT22;10122;50.074;19.920;2023-04-03T13:13:28;6.80;99.50
19920;DHT22;10122;50.074;19.920;2023-04-03T13:15:54;6.80;99.90
19920;DHT22;10122;50.074;19.920;2023-04-03T13:18:32;6.80;99.90
19920;DHT22;10122;50.074;19.920;2023-04-03T13:23:29;6.90;99.90
19920;DHT22;10122;50.074;19.920;2023-04-03T13:25:55;7.00;99.00
19920;DHT22;10122;50.074;19.920;2023-04-03T13:28:26;7.10;99.70
19920;DHT22;10122;50.074;19.920;2023-04-03T13:33:32;6.50;97.80
19920;DHT22;10122;50.074;19.920;2023-04-03T13:36:17;6.10;97.40
19920;DHT22;10122;50.074;19.920;2023-04-03T13:38:43;6.00;99.70
19920;DHT22;10122;50.074;19.920;2023-04-03T13:41:29;6.30;98.80
19920;DHT22;10122;50.074;19.920;2023-04-03T13:43:55;6.50;98.00
19920;DHT22;10122;50.074;19.920;2023-04-03T13:46:27;6.70;99.60
19920;DHT22;10122;50.074;19.920;2023-04-03T13:48:55;7.00;97.40
19920;DHT22;10122;50.074;19.920;2023-04-03T13:51:25;6.50;96.60
19920;DHT22;10122;50.074;19.920;2023-04-03T13:53:59;6.30;98.50
19920;DHT22;10122;50.074;19.920;2023-04-03T13:56:37;6.10;97.20
19920;DHT22;10122;50.074;19.920;2023-04-03T14:01:55;6.00;98.80
19920;DHT22;10122;50.074;19.920;2023-04-03T14:04:43;6.10;98.70
19920;DHT22;10122;50.074;19.920;2023-04-03T14:07:11;6.20;99.00
19920;DHT22;10122;50.074;19.920;2023-04-03T14:09:37;6.20;98.60
19920;DHT22;10122;50.074;19.920;2023-04-03T14:12:07;6.10;98.40
19920;DHT22;10122;50.074;19.920;2023-04-03T14:14:35;6.30;98.80
19920;DHT22;10122;50.074;19.920;2023-04-03T14:17:05;6.30;96.60
19920;DHT22;10122;50.074;19.920;2023-04-03T14:19:36;6.10;96.60
19920;DHT22;10122;50.074;19.920;2023-04-03T14:22:18;5.90;97.20
19920;DHT22;10122;50.074;19.920;2023-04-03T14:24:45;6.00;97.60
19920;DHT22;10122;50.074;19.920;2023-04-03T14:29:43;6.00;97.00
19920;DHT22;10122;50.074;19.920;2023-04-03T14:32:13;6.00;99.10
19920;DHT22;10122;50.074;19.920;2023-04-03T14:34:39;6.30;98.60
19920;DHT22;10122;50.074;19.920;2023-04-03T14:37:10;6.40;98.40
19920;DHT22;10122;50.074;19.920;2023-04-03T14:39:36;6.00;96.40
19920;DHT22;10122;50.074;19.920;2023-04-03T14:42:02;5.90;98.10
19920;DHT22;10122;50.074;19.920;2023-04-03T14:44:27;5.80;97.10
19920;DHT22;10122;50.074;19.920;2023-04-03T14:46:53;5.70;98.50
19920;DHT22;10122;50.074;19.920;2023-04-03T14:49:21;5.80;98.70
19920;DHT22;10122;50.074;19.920;2023-04-03T14:51:47;6.00;98.70
19920;DHT22;10122;50.074;19.920;2023-04-03T14:54:17;6.30;97.20
19920;DHT22;10122;50.074;19.920;2023-04-03T14:56:44;6.30;96.10
19920;DHT22;10122;50.074;19.920;2023-04-03T14:59:12;6.10;97.00
19920;DHT22;10122;50.074;19.920;2023-04-03T15:01:38;6.50;97.70
19920;DHT22;10122;50.074;19.920;2023-04-03T15:04:18;6.60;95.90
19920;DHT22;10122;50.074;19.920;2023-04-03T15:06:44;6.30;95.20
19920;DHT22;10122;50.074;19.920;2023-04-03T15:09:28;6.20;94.70
19920;DHT22;10122;50.074;19.920;2023-04-03T15:11:55;6.20;95.70
19920;DHT22;10122;50.074;19.920;2023-04-03T15:14:21;6.30;94.90
19920;DHT22;10122;50.074;19.920;2023-04-03T15:16:48;6.30;94.30
19920;DHT22;10122;50.074;19.920;2023-04-03T15:19:14;6.00;94.20
19920;DHT22;10122;50.074;19.920;2023-04-03T15:21:40;6.00;95.40
19920;DHT22;10122;50.074;19.920;2023-04-03T15:24:06;6.10;94.90
19920;DHT22;10122;50.074;19.920;2023-04-03T15:26:32;5.90;93.90
19920;DHT22;10122;50.074;19.920;2023-04-03T15:28:58;5.90;94.30
19920;DHT22;10122;50.074;19.920;2023-04-03T15:31:24;5.90;95.00
19920;DHT22;10122;50.074;19.920;2023-04-03T15:33:49;5.90;94.40
19920;DHT22;10122;50.074;19.920;2023-04-03T15:36:15;5.80;93.40
19920;DHT22;10122;50.074;19.920;2023-04-03T15:38:41;5.60;94.80
19920;DHT22;10122;50.074;19.920;2023-04-03T15:41:07;5.70;94.40
19920;DHT22;10122;50.074;19.920;2023-04-03T15:43:32;5.90;95.30
19920;DHT22;10122;50.074;19.920;2023-04-03T15:46:02;5.90;95.00
19920;DHT22;10122;50.074;19.920;2023-04-03T15:48:28;6.00;94.20
19920;DHT22;10122;50.074;19.920;2023-04-03T15:50:54;6.00;93.00
19920;DHT22;10122;50.074;19.920;2023-04-03T15:53:20;6.00;94.20
19920;DHT22;10122;50.074;19.920;2023-04-03T15:55:46;6.20;94.10
19920;DHT22;10122;50.074;19.920;2023-04-03T15:58:11;6.30;94.50
19920;DHT22;10122;50.074;19.920;2023-04-03T16:00:37;6.40;94.20
19920;DHT22;10122;50.074;19.920;2023-04-03T16:03:11;6.50;94.30
19920;DHT22;10122;50.074;19.920;2023-04-03T16:05:38;6.40;92.70
19920;DHT22;10122;50.074;19.920;2023-04-03T16:08:05;6.30;93.80
19920;DHT22;10122;50.074;19.920;2023-04-03T16:10:33;6.40;93.00
19920;DHT22;10122;50.074;19.920;2023-04-03T16:12:59;6.50;93.00
19920;DHT22;10122;50.074;19.920;2023-04-03T16:15:26;6.30;92.60
19920;DHT22;10122;50.074;19.920;2023-04-03T16:17:52;6.40;93.20
19920;DHT22;10122;50.074;19.920;2023-04-03T16:20:18;6.40;92.40
19920;DHT22;10122;50.074;19.920;2023-04-03T16:22:44;6.40;93.00
19920;DHT22;10122;50.074;19.920;2023-04-03T16:25:11;6.30;92.60
19920;DHT22;10122;50.074;19.920;2023-04-03T16:27:37;5.90;91.90
19920;DHT22;10122;50.074;19.920;2023-04-03T16:30:05;5.90;92.50
19920;DHT22;10122;50.074;19.920;2023-04-03T16:32:32;5.90;93.40
19920;DHT22;10122;50.074;19.920;2023-04-03T16:34:58;6.00;92.30
19920;DHT22;10122;50.074;19.920;2023-04-03T16:37:24;5.80;93.00
19920;DHT22;10122;50.074;19.920;2023-04-03T16:39:50;5.70;93.10
19920;DHT22;10122;50.074;19.920;2023-04-03T16:42:16;5.60;93.80
19920;DHT22;10122;50.074;19.920;2023-04-03T16:44:42;5.70;93.40
19920;DHT22;10122;50.074;19.920;2023-04-03T16:47:08;5.70;93.00
19920;DHT22;10122;50.074;19.920;2023-04-03T16:49:34;5.50;93.30
19920;DHT22;10122;50.074;19.920;2023-04-03T16:52:03;5.40;94.20
19920;DHT22;10122;50.074;19.920;2023-04-03T16:54:30;5.30;93.80
19920;DHT22;10122;50.074;19.920;2023-04-03T16:56:56;5.30;94.30
19920;DHT22;10122;50.074;19.920;2023-04-03T16:59:22;5.20;94.60
19920;DHT22;10122;50.074;19.920;2023-04-03T17:01:48;5.10;94.30
19920;DHT22;10122;50.074;19.920;2023-04-03T17:04:14;5.10;95.00
19920;DHT22;10122;50.074;19.920;2023-04-03T17:06:40;5.10;94.70
19920;DHT22;10122;50.074;19.920;2023-04-03T17:09:06;5.00;95.40
19920;DHT22;10122;50.074;19.920;2023-04-03T17:11:32;5.20;95.40
19920;DHT22;10122;50.074;19.920;2023-04-03T17:13:58;5.00;94.90
19920;DHT22;10122;50.074;19.920;2023-04-03T17:16:25;4.90;95.30
19920;DHT22;10122;50.074;19.920;2023-04-03T17:18:52;5.00;95.30
19920;DHT22;10122;50.074;19.920;2023-04-03T17:21:18;4.90;95.40
19920;DHT22;10122;50.074;19.920;2023-04-03T17:23:47;4.90;95.00
19920;DHT22;10122;50.074;19.920;2023-04-03T17:26:14;4.80;94.90
19920;DHT22;10122;50.074;19.920;2023-04-03T17:28:40;4.80;96.20
19920;DHT22;10122;50.074;19.920;2023-04-03T17:31:07;4.80;95.90
19920;DHT22;10122;50.074;19.920;2023-04-03T17:33:32;4.70;95.90
19920;DHT22;10122;50.074;19.920;2023-04-03T17:36:00;4.70;95.80
19920;DHT22;10122;50.074;19.920;2023-04-03T17:38:27;4.70;96.00
19920;DHT22;10122;50.074;19.920;2023-04-03T17:40:58;4.60;95.70
19920;DHT22;10122;50.074;19.920;2023-04-03T17:43:24;4.60;96.00
19920;DHT22;10122;50.074;19.920;2023-04-03T17:45:50;4.40;96.60
19920;DHT22;10122;50.074;19.920;2023-04-03T17:48:17;4.40;96.70
19920;DHT22;10122;50.074;19.920;2023-04-03T17:50:42;4.30;96.50
19920;DHT22;10122;50.074;19.920;2023-04-03T17:53:08;4.30;96.90